createdAt,value
2023-05-30T00:00:38.989Z,101601.75
2023-05-30T00:03:07.403Z,101600.88
2023-05-30T00:05:35.482Z,101609.81
2023-05-30T00:08:03.496Z,101610.69
2023-05-30T00:10:31.571Z,101625.91
2023-05-30T00:13:01.049Z,101619.56
2023-05-30T00:15:29.586Z,101623.31
2023-05-30T00:17:58.403Z,101627.84
2023-05-30T00:20:26.570Z,101598.50
2023-05-30T00:22:54.540Z,101625.25
2023-05-30T00:25:22.663Z,101628.91
2023-05-30T00:27:51.223Z,101633.44
2023-05-30T00:30:20.880Z,101626.25
2023-05-30T00:32:48.950Z,101630.00
2023-05-30T00:35:17.874Z,101634.38
2023-05-30T00:37:45.992Z,101633.63
2023-05-30T00:40:14.366Z,101647.91
2023-05-30T00:42:42.556Z,101650.69
2023-05-30T00:45:10.983Z,101656.16
2023-05-30T00:47:41.362Z,101652.50
2023-05-30T00:50:10.431Z,101660.78
2023-05-30T00:52:38.665Z,101672.28
2023-05-30T00:55:07.984Z,101678.59
2023-05-30T00:57:36.676Z,101682.28
2023-05-30T01:00:05.954Z,101646.84
2023-05-30T01:02:35.382Z,101676.13
2023-05-30T01:05:05.200Z,101686.78
2023-05-30T01:07:34.434Z,101688.59
2023-05-30T01:10:02.823Z,101698.47
2023-05-30T01:12:38.202Z,101694.81
2023-05-30T01:15:13.237Z,101683.06
2023-05-30T01:17:51.814Z,101709.19
2023-05-30T01:20:26.110Z,101717.38
2023-05-30T01:23:19.874Z,101699.59
2023-05-30T01:26:01.882Z,101723.69
2023-05-30T01:28:34.371Z,101728.19
2023-05-30T01:31:03.390Z,101732.72
2023-05-30T01:33:32.521Z,101730.97
2023-05-30T01:36:01.114Z,101739.03
2023-05-30T01:38:30.184Z,101741.03
2023-05-30T01:41:01.139Z,101743.53
2023-05-30T01:43:41.776Z,101756.00
2023-05-30T01:46:18.511Z,101762.31
2023-05-30T01:48:54.292Z,101773.19
2023-05-30T01:51:29.084Z,101778.56
2023-05-30T01:54:00.752Z,101777.56
2023-05-30T01:56:29.979Z,101768.19
2023-05-30T01:59:01.940Z,101791.22
2023-05-30T02:01:31.988Z,101793.97
2023-05-30T02:04:01.238Z,101792.16
2023-05-30T02:06:29.272Z,101804.81
2023-05-30T02:08:57.244Z,101760.41
2023-05-30T02:11:25.380Z,101783.84
2023-05-30T02:13:54.707Z,101807.59
2023-05-30T02:16:25.332Z,101806.66
2023-05-30T02:18:53.986Z,101808.56
2023-05-30T02:21:22.236Z,101810.38
2023-05-30T02:23:50.850Z,101819.38
2023-05-30T02:26:18.830Z,101811.34
2023-05-30T02:28:47.078Z,101809.06
2023-05-30T02:31:15.065Z,101818.53
2023-05-30T02:33:44.793Z,101824.00
2023-05-30T02:36:13.305Z,101836.34
2023-05-30T02:38:41.416Z,101831.94
2023-05-30T02:41:09.442Z,101841.72
2023-05-30T02:43:37.750Z,101846.03
2023-05-30T02:46:06.751Z,101854.78
2023-05-30T02:48:38.094Z,101858.09
2023-05-30T02:51:07.707Z,101863.22
2023-05-30T02:53:35.769Z,101871.16
2023-05-30T02:56:03.714Z,101869.22
2023-05-30T02:58:40.364Z,101873.66
2023-05-30T03:01:37.646Z,101889.66
2023-05-30T03:04:06.501Z,101890.53
2023-05-30T03:06:41.675Z,101884.22
2023-05-30T03:09:39.075Z,101890.44
2023-05-30T03:12:08.156Z,101884.97
2023-05-30T03:14:36.338Z,101898.00
2023-05-30T03:17:05.163Z,101900.47
2023-05-30T03:19:33.606Z,101894.91
2023-05-30T03:22:06.645Z,101896.47
2023-05-30T03:24:35.478Z,101898.84
2023-05-30T03:27:03.518Z,101910.28
2023-05-30T03:29:32.190Z,101920.72
2023-05-30T03:32:00.424Z,101920.41
2023-05-30T03:34:29.061Z,101915.72
2023-05-30T03:36:57.880Z,101921.75
2023-05-30T03:39:29.359Z,101925.28
2023-05-30T03:41:58.373Z,101941.06
2023-05-30T03:44:26.436Z,101938.19
2023-05-30T03:46:54.461Z,101936.25
2023-05-30T03:49:22.502Z,101938.75
2023-05-30T03:51:50.627Z,101943.06
2023-05-30T03:54:18.814Z,101950.94
2023-05-30T03:56:49.703Z,101953.31
2023-05-30T03:59:17.845Z,101960.31
2023-05-30T04:01:45.945Z,101957.50
2023-05-30T04:04:14.052Z,101961.00
2023-05-30T04:06:42.219Z,101958.00
2023-05-30T04:09:10.418Z,101982.00
2023-05-30T04:11:38.444Z,101985.31
2023-05-30T04:14:07.761Z,101985.06
2023-05-30T04:16:36.889Z,101984.84
2023-05-30T04:19:05.203Z,101986.47
2023-05-30T04:21:34.155Z,101991.63
2023-05-30T04:24:02.096Z,101993.25
2023-05-30T04:26:30.155Z,101997.50
2023-05-30T04:28:59.065Z,101992.88
2023-05-30T04:31:28.686Z,101998.91
2023-05-30T04:33:56.962Z,102010.53
2023-05-30T04:36:26.193Z,102004.94
2023-05-30T04:38:54.788Z,102011.00
2023-05-30T04:41:27.163Z,102010.88
2023-05-30T04:43:58.868Z,102005.44
2023-05-30T04:46:29.873Z,102023.22
2023-05-30T04:48:59.920Z,102021.38
2023-05-30T04:51:28.140Z,102020.97
2023-05-30T04:53:56.637Z,102025.28
2023-05-30T04:56:24.734Z,102027.69
2023-05-30T04:58:53.790Z,102022.81
2023-05-30T05:01:22.282Z,102033.69
2023-05-30T05:03:52.430Z,102029.00
2023-05-30T05:06:21.032Z,102030.72
2023-05-30T05:08:49.694Z,102048.50
2023-05-30T05:11:17.915Z,102055.50
2023-05-30T05:13:45.943Z,102047.31
2023-05-30T05:16:14.121Z,102051.75
2023-05-30T05:18:42.115Z,102051.53
2023-05-30T05:21:11.634Z,102062.19
2023-05-30T05:23:39.787Z,102066.63
2023-05-30T05:26:07.949Z,102062.88
2023-05-30T05:28:35.963Z,102060.94
2023-05-30T05:31:04.049Z,102066.31
2023-05-30T05:33:32.151Z,102069.19
2023-05-30T05:36:00.137Z,102067.06
2023-05-30T05:38:30.185Z,102071.38
2023-05-30T05:40:58.524Z,102072.31
2023-05-30T05:43:26.838Z,102069.56
2023-05-30T05:45:54.884Z,102078.38
2023-05-30T05:48:22.863Z,102082.69
2023-05-30T05:50:50.910Z,102060.72
2023-05-30T05:53:18.976Z,102077.97
2023-05-30T05:55:48.874Z,102076.78
2023-05-30T05:58:16.910Z,102084.78
2023-05-30T06:00:44.895Z,102090.81
2023-05-30T06:03:13.097Z,102086.22
2023-05-30T06:05:41.415Z,102098.59
2023-05-30T06:08:09.338Z,102105.63
2023-05-30T06:10:37.355Z,102089.47
2023-05-30T06:13:06.788Z,102103.59
2023-05-30T06:15:34.778Z,102107.25
2023-05-30T06:18:02.882Z,102098.97
2023-05-30T06:20:30.952Z,102096.16
2023-05-30T06:22:58.994Z,102103.28
2023-05-30T06:25:27.491Z,102112.13
2023-05-30T06:27:55.454Z,102103.50
2023-05-30T06:30:25.458Z,102108.25
2023-05-30T06:32:53.483Z,102115.38
2023-05-30T06:35:21.536Z,102107.28
2023-05-30T06:37:49.530Z,102104.59
2023-05-30T06:40:17.611Z,102117.06
2023-05-30T06:42:45.643Z,102111.47
2023-05-30T06:45:14.516Z,102116.66
2023-05-30T06:47:43.995Z,102123.78
2023-05-30T06:50:12.195Z,102105.47
2023-05-30T06:52:40.125Z,102119.16
2023-05-30T06:55:09.271Z,102130.81
2023-05-30T06:57:38.747Z,102132.41
2023-05-30T07:00:08.115Z,102143.94
2023-05-30T07:02:36.194Z,102141.13
2023-05-30T07:05:06.639Z,102132.22
2023-05-30T07:07:34.673Z,102128.53
2023-05-30T07:10:02.860Z,102128.75
2023-05-30T07:12:30.846Z,102132.97
2023-05-30T07:14:58.870Z,102127.56
2023-05-30T07:17:27.109Z,102123.13
2023-05-30T07:19:55.248Z,102141.91
2023-05-30T07:22:24.693Z,102133.72
2023-05-30T07:24:52.693Z,102128.53
2023-05-30T07:27:20.764Z,102145.38
2023-05-30T07:29:48.909Z,102136.41
2023-05-30T07:32:16.932Z,102125.22
2023-05-30T07:34:44.958Z,102141.03
2023-05-30T07:37:13.102Z,102138.34
2023-05-30T07:39:42.484Z,102138.34
2023-05-30T07:42:10.673Z,102138.56
2023-05-30T07:44:38.668Z,102143.84
2023-05-30T07:47:07.480Z,102140.38
2023-05-30T07:49:35.525Z,102133.28
2023-05-30T07:52:03.676Z,102146.84
2023-05-30T07:54:32.077Z,102108.56
2023-05-30T07:57:01.649Z,102141.56
2023-05-30T07:59:29.639Z,102157.75
2023-05-30T08:01:57.616Z,102161.41
2023-05-30T08:04:25.779Z,102157.06
2023-05-30T08:06:53.771Z,102147.28
2023-05-30T08:09:22.216Z,102144.59
2023-05-30T08:11:50.237Z,102148.13
2023-05-30T08:14:19.722Z,102143.81
2023-05-30T08:16:48.129Z,102124.94
2023-05-30T08:19:17.037Z,102151.81
2023-05-30T08:21:45.522Z,102143.59
2023-05-30T08:24:16.337Z,102144.47
2023-05-30T08:26:44.306Z,102148.13
2023-05-30T08:29:12.462Z,102152.00
2023-05-30T08:31:41.998Z,102154.59
2023-05-30T08:34:10.158Z,102152.69
2023-05-30T08:36:38.437Z,102160.75
2023-05-30T08:39:14.929Z,102147.28
2023-05-30T08:41:43.852Z,102150.81
2023-05-30T08:44:12.073Z,102162.59
2023-05-30T08:46:44.117Z,102158.06
2023-05-30T08:49:15.716Z,102172.50
2023-05-30T08:51:45.096Z,102127.94
2023-05-30T08:54:17.676Z,102170.66
2023-05-30T08:56:52.338Z,102161.72
2023-05-30T08:59:22.622Z,102160.97
2023-05-30T09:01:55.214Z,102130.50
2023-05-30T09:04:25.137Z,102147.91
2023-05-30T09:06:55.311Z,102152.97
2023-05-30T09:09:24.879Z,102155.78
2023-05-30T09:11:53.577Z,102155.09
2023-05-30T09:14:21.697Z,102163.09
2023-05-30T09:16:51.527Z,102154.25
2023-05-30T09:19:19.654Z,102154.47
2023-05-30T09:21:48.004Z,102160.63
2023-05-30T09:24:16.292Z,102159.94
2023-05-30T09:26:58.609Z,102155.44
2023-05-30T09:29:27.345Z,102149.28
2023-05-30T09:31:57.514Z,102102.94
2023-05-30T09:34:25.587Z,102153.06
2023-05-30T09:36:58.096Z,102148.50
2023-05-30T09:39:28.803Z,102150.56
2023-05-30T09:41:57.922Z,102146.97
2023-05-30T09:44:26.115Z,102149.78
2023-05-30T09:46:59.272Z,102160.53
2023-05-30T09:49:29.687Z,102151.69
2023-05-30T09:51:57.744Z,102160.75
2023-05-30T09:54:25.875Z,102151.69
2023-05-30T09:56:54.865Z,102155.25
2023-05-30T09:59:24.796Z,102152.53
2023-05-30T10:01:53.042Z,102142.50
2023-05-30T10:04:24.127Z,102145.44
2023-05-30T10:06:53.545Z,102140.25
2023-05-30T10:09:22.891Z,102134.88
2023-05-30T10:11:52.192Z,102121.06
2023-05-30T10:14:20.714Z,102139.28
2023-05-30T10:16:52.361Z,102142.97
2023-05-30T10:19:26.861Z,102148.22
2023-05-30T10:24:25.562Z,102144.97
2023-05-30T10:26:56.486Z,102143.03
2023-05-30T10:29:29.729Z,102141.34
2023-05-30T10:32:01.716Z,102142.28
2023-05-30T10:34:39.298Z,102139.59
2023-05-30T10:37:08.360Z,102150.47
2023-05-30T10:39:42.814Z,102144.13
2023-05-30T10:47:25.164Z,102141.72
2023-05-30T10:49:59.408Z,102147.53
2023-05-30T10:52:34.442Z,102161.53
2023-05-30T10:55:02.848Z,102147.53
2023-05-30T10:57:33.302Z,102154.53
2023-05-30T11:00:10.934Z,102154.53
2023-05-30T11:02:40.356Z,102151.06
2023-05-30T11:05:12.021Z,102132.22
2023-05-30T11:07:42.224Z,102144.94
2023-05-30T11:10:13.603Z,102150.31
2023-05-30T11:12:44.331Z,102139.63
2023-05-30T11:15:16.856Z,102142.34
2023-05-30T11:17:45.334Z,102136.19
2023-05-30T11:20:18.043Z,102146.00
2023-05-30T11:23:20.261Z,102127.16
2023-05-30T11:25:48.393Z,102136.38
2023-05-30T11:28:17.598Z,102129.84
2023-05-30T11:30:48.036Z,102097.91
2023-05-30T11:33:17.442Z,102115.72
2023-05-30T11:35:48.642Z,102119.94
2023-05-30T11:38:20.798Z,102118.97
2023-05-30T11:40:49.480Z,102127.16
2023-05-30T11:43:18.356Z,102119.94
2023-05-30T11:45:47.768Z,102133.31
2023-05-30T11:48:16.044Z,102140.50
2023-05-30T11:50:45.065Z,102123.78
2023-05-30T11:53:15.741Z,102127.03
2023-05-30T11:55:46.599Z,102123.41
2023-05-30T11:58:16.516Z,102095.44
2023-05-30T12:00:45.509Z,102112.63
2023-05-30T12:03:17.679Z,102115.31
2023-05-30T12:05:46.388Z,102117.16
2023-05-30T12:08:18.042Z,102109.19
2023-05-30T12:10:46.504Z,102105.50
2023-05-30T12:13:14.937Z,102107.25
2023-05-30T12:15:42.964Z,102021.63
2023-05-30T12:18:11.876Z,102104.56
2023-05-30T12:20:45.253Z,102104.44
2023-05-30T12:23:15.085Z,102105.50
2023-05-30T12:25:51.078Z,102101.00
2023-05-30T12:28:19.078Z,102101.94
2023-05-30T12:30:47.768Z,102093.03
2023-05-30T12:33:16.982Z,102095.81
2023-05-30T12:35:45.647Z,102094.84
2023-05-30T12:38:17.098Z,102095.72
2023-05-30T12:40:48.258Z,102093.03
2023-05-30T12:43:19.762Z,102094.94
2023-05-30T12:45:48.467Z,102089.66
2023-05-30T12:48:16.549Z,102095.06
2023-05-30T12:50:44.799Z,102091.41
2023-05-30T12:53:12.801Z,102087.09
2023-05-30T12:55:42.169Z,102077.16
2023-05-30T12:58:10.220Z,102080.91
2023-05-30T13:00:38.406Z,102095.16
2023-05-30T13:03:06.765Z,102104.09
2023-05-30T13:05:35.073Z,102095.06
2023-05-30T13:08:03.194Z,102092.69
2023-05-30T13:10:32.346Z,102094.94
2023-05-30T13:13:02.046Z,102095.81
2023-05-30T13:15:30.081Z,102083.34
2023-05-30T13:17:58.028Z,102086.84
2023-05-30T13:20:26.083Z,102089.56
2023-05-30T13:22:54.033Z,102079.97
2023-05-30T13:25:22.078Z,102084.97
2023-05-30T13:27:51.756Z,102079.66
2023-05-30T13:30:21.332Z,102083.97
2023-05-30T13:32:49.963Z,102082.25
2023-05-30T13:35:18.038Z,102083.97
2023-05-30T13:37:46.371Z,102082.25
2023-05-30T13:40:14.347Z,102083.09
2023-05-30T13:42:42.478Z,102084.97
2023-05-30T13:45:11.425Z,102086.78
2023-05-30T13:47:40.930Z,102081.28
2023-05-30T13:50:10.261Z,102084.97
2023-05-30T13:52:39.703Z,102084.09
2023-05-30T13:55:08.823Z,102088.47
2023-05-30T13:57:36.773Z,102085.03
2023-05-30T14:00:05.569Z,102076.97
2023-05-30T14:02:33.601Z,102071.69
2023-05-30T14:05:03.130Z,102074.38
2023-05-30T14:07:31.223Z,102070.06
2023-05-30T14:09:59.265Z,102059.16
2023-05-30T14:12:27.686Z,102072.66
2023-05-30T14:14:55.911Z,102065.63
2023-05-30T14:17:24.049Z,102066.50
2023-05-30T14:19:52.098Z,102067.25
2023-05-30T14:22:22.189Z,102059.63
2023-05-30T14:24:50.719Z,102062.06
2023-05-30T14:27:18.738Z,102055.84
2023-05-30T14:29:46.921Z,102049.50
2023-05-30T14:32:15.345Z,102040.78
2023-05-30T14:34:43.996Z,102040.53
2023-05-30T14:37:12.214Z,102032.59
2023-05-30T14:39:41.606Z,102034.97
2023-05-30T14:42:10.171Z,102032.25
2023-05-30T14:44:40.159Z,102023.22
2023-05-30T14:47:09.413Z,102036.69
2023-05-30T14:49:38.628Z,102033.25
2023-05-30T14:52:07.766Z,102021.28
2023-05-30T14:54:35.861Z,102032.06
2023-05-30T14:57:05.809Z,102024.84
2023-05-30T14:59:34.646Z,102019.47
2023-05-30T15:02:04.027Z,102007.28
2023-05-30T15:04:32.574Z,102020.44
2023-05-30T15:07:00.512Z,102021.19
2023-05-30T15:09:28.809Z,102011.41
2023-05-30T15:11:56.842Z,102009.56
2023-05-30T15:14:26.200Z,102005.91
2023-05-30T15:16:54.332Z,101996.09
2023-05-30T15:19:22.239Z,101971.06
2023-05-30T15:21:50.203Z,101992.56
2023-05-30T15:24:18.241Z,101990.81
2023-05-30T15:26:46.443Z,101966.69
2023-05-30T15:29:14.640Z,101981.03
2023-05-30T15:31:44.085Z,101979.28
2023-05-30T15:34:12.100Z,101981.13
2023-05-30T15:36:40.045Z,101978.53
2023-05-30T15:39:08.616Z,101978.53
2023-05-30T15:41:36.683Z,101967.66
2023-05-30T15:44:04.709Z,101974.03
2023-05-30T15:46:32.890Z,101975.84
2023-05-30T15:49:02.263Z,101969.59
2023-05-30T15:51:31.603Z,101951.94
2023-05-30T15:53:59.588Z,101959.69
2023-05-30T15:56:28.270Z,101957.09
2023-05-30T15:58:57.295Z,101959.78
2023-05-30T16:01:26.087Z,101959.59
2023-05-30T16:03:57.178Z,101955.19
2023-05-30T16:06:27.440Z,101955.94
2023-05-30T16:08:55.465Z,101958.63
2023-05-30T16:11:23.504Z,101954.94
2023-05-30T16:13:51.590Z,101947.72
2023-05-30T16:16:19.710Z,101948.72
2023-05-30T16:18:47.678Z,101947.72
2023-05-30T16:21:15.790Z,101945.03
2023-05-30T16:23:45.139Z,101955.72
2023-05-30T16:26:13.109Z,101953.88
2023-05-30T16:28:41.105Z,101931.50
2023-05-30T16:31:10.035Z,101933.94
2023-05-30T16:33:38.334Z,101912.72
2023-05-30T16:36:08.451Z,101910.44
2023-05-30T16:38:37.982Z,101939.47
2023-05-30T16:41:13.338Z,101936.75
2023-05-30T16:43:42.450Z,101935.88
2023-05-30T16:46:11.481Z,101936.69
2023-05-30T16:48:39.615Z,101933.97
2023-05-30T16:51:07.717Z,101928.34
2023-05-30T16:53:36.124Z,101923.75
2023-05-30T16:56:16.697Z,101928.81
2023-05-30T16:58:46.368Z,101929.56
2023-05-30T17:01:15.007Z,101933.00
2023-05-30T17:03:43.531Z,101921.34
2023-05-30T17:06:12.569Z,101922.88
2023-05-30T17:08:42.694Z,101914.69
2023-05-30T17:11:13.340Z,101912.75
2023-05-30T17:13:41.445Z,101914.41
2023-05-30T17:16:09.464Z,101905.25
2023-05-30T17:18:37.563Z,101902.44
2023-05-30T17:21:05.814Z,101907.63
2023-05-30T17:23:34.443Z,101903.97
2023-05-30T17:26:03.549Z,101842.44
2023-05-30T17:28:34.220Z,101901.03
2023-05-30T17:31:02.788Z,101902.63
2023-05-30T17:33:31.151Z,101899.09
2023-05-30T17:35:59.137Z,101892.72
2023-05-30T17:38:27.293Z,101885.50
2023-05-30T17:40:55.337Z,101883.78
2023-05-30T17:43:24.201Z,101884.75
2023-05-30T17:45:54.044Z,101883.03
2023-05-30T17:48:22.548Z,101887.56
2023-05-30T17:50:51.148Z,101877.63
2023-05-30T17:53:19.238Z,101867.88
2023-05-30T17:55:47.782Z,101872.38
2023-05-30T17:58:16.068Z,101870.66
2023-05-30T18:00:47.255Z,101879.59
2023-05-30T18:03:18.430Z,101874.22
2023-05-30T18:05:46.661Z,101867.41
2023-05-30T18:08:18.543Z,101851.66
2023-05-30T18:10:46.827Z,101866.47
2023-05-30T18:13:15.259Z,101857.72
2023-05-30T18:15:45.824Z,101856.44
2023-05-30T18:18:15.453Z,101854.06
2023-05-30T18:20:45.266Z,101854.81
2023-05-30T18:23:13.391Z,101852.13
2023-05-30T18:25:42.123Z,101843.19
2023-05-30T18:28:11.098Z,101844.13
2023-05-30T18:30:40.698Z,101844.25
2023-05-30T18:33:09.202Z,101833.50
2023-05-30T18:35:37.367Z,101835.22
2023-05-30T18:38:06.845Z,101834.34
2023-05-30T18:40:34.827Z,101832.06
2023-05-30T18:43:02.940Z,101834.34
2023-05-30T18:45:31.096Z,101838.00
2023-05-30T18:47:59.228Z,101832.75
2023-05-30T18:50:27.773Z,101830.91
2023-05-30T18:52:55.983Z,101842.53
2023-05-30T18:55:27.150Z,101812.38
2023-05-30T18:57:55.290Z,101837.22
2023-05-30T19:00:23.375Z,101824.97
2023-05-30T19:02:53.510Z,101830.06
2023-05-30T19:05:22.093Z,101825.53
2023-05-30T19:07:50.048Z,101830.78
2023-05-30T19:10:18.118Z,101826.16
2023-05-30T19:12:48.630Z,101825.28
2023-05-30T19:15:16.821Z,101826.28
2023-05-30T19:17:45.001Z,101827.97
2023-05-30T19:20:13.443Z,101805.25
2023-05-30T19:22:41.580Z,101809.78
2023-05-30T19:25:10.587Z,101812.81
2023-05-30T19:27:38.688Z,101816.66
2023-05-30T19:30:09.251Z,101821.84
2023-05-30T19:32:37.405Z,101824.53
2023-05-30T19:35:06.313Z,101813.94
2023-05-30T19:37:34.327Z,101818.28
2023-05-30T19:40:02.281Z,101805.47
2023-05-30T19:42:30.287Z,101816.03
2023-05-30T19:44:58.469Z,101820.03
2023-05-30T19:47:28.159Z,101815.69
2023-05-30T19:49:56.254Z,101820.16
2023-05-30T19:52:24.222Z,101818.28
2023-05-30T19:54:52.273Z,101819.28
2023-05-30T19:57:20.317Z,101817.47
2023-05-30T19:59:48.250Z,101813.94
2023-05-30T20:02:16.384Z,101809.56
2023-05-30T20:04:45.688Z,101811.25
2023-05-30T20:07:13.806Z,101806.88
2023-05-30T20:09:42.515Z,101785.78
2023-05-30T20:12:10.987Z,101809.66
2023-05-30T20:14:39.119Z,101813.44
2023-05-30T20:17:07.646Z,101799.97
2023-05-30T20:19:35.661Z,101809.78
2023-05-30T20:22:05.239Z,101807.94
2023-05-30T20:24:33.430Z,101808.91
2023-05-30T20:27:03.257Z,101801.69
2023-05-30T20:29:31.330Z,101789.53
2023-05-30T20:31:59.364Z,101795.56
2023-05-30T20:34:27.384Z,101794.69
2023-05-30T20:36:57.420Z,101785.22
2023-05-30T20:39:27.314Z,101793.84
2023-05-30T20:41:55.517Z,101790.41
2023-05-30T20:44:23.474Z,101785.00
2023-05-30T20:46:52.496Z,101783.28
2023-05-30T20:49:20.782Z,101791.34
2023-05-30T20:51:48.738Z,101721.44
2023-05-30T20:54:16.765Z,101764.91
2023-05-30T20:56:46.286Z,101772.63
2023-05-30T20:59:14.286Z,101770.91
2023-05-30T21:01:45.362Z,101769.28
2023-05-30T21:04:14.078Z,101766.59
2023-05-30T21:06:42.212Z,101763.91
2023-05-30T21:09:10.396Z,101757.66
2023-05-30T21:11:38.485Z,101755.09
2023-05-30T21:14:10.206Z,101722.28
2023-05-30T21:16:41.857Z,101747.75
2023-05-30T21:19:10.409Z,101702.78
2023-05-30T21:21:42.761Z,101719.13
2023-05-30T21:24:17.116Z,101726.13
2023-05-30T21:26:45.187Z,101732.81
2023-05-30T21:29:14.778Z,101732.81
2023-05-30T21:31:42.802Z,101721.59
2023-05-30T21:34:10.818Z,101719.38
2023-05-30T21:36:40.726Z,101726.38
2023-05-30T21:39:09.136Z,101726.38
2023-05-30T21:41:37.092Z,101721.41
2023-05-30T21:44:06.332Z,101710.78
2023-05-30T21:46:37.400Z,101717.00
2023-05-30T21:49:06.776Z,101704.75
2023-05-30T21:51:34.920Z,101709.47
2023-05-30T21:54:04.242Z,101705.19
2023-05-30T21:56:32.555Z,101703.69
2023-05-30T21:59:00.778Z,101695.72
2023-05-30T22:01:28.855Z,101697.66
2023-05-30T22:03:58.355Z,101689.72
2023-05-30T22:06:26.423Z,101694.44
2023-05-30T22:08:54.325Z,101682.28
2023-05-30T22:11:23.731Z,101689.50
2023-05-30T22:13:51.761Z,101689.41
2023-05-30T22:16:20.573Z,101683.38
2023-05-30T22:18:48.631Z,101685.19
2023-05-30T22:21:18.029Z,101688.00
2023-05-30T22:23:45.990Z,101677.28
2023-05-30T22:26:14.014Z,101672.03
2023-05-30T22:28:42.013Z,101673.88
2023-05-30T22:31:10.124Z,101665.06
2023-05-30T22:33:38.164Z,101649.69
2023-05-30T22:36:06.635Z,101642.91
2023-05-30T22:38:35.930Z,101662.56
2023-05-30T22:41:03.952Z,101651.06
2023-05-30T22:43:31.883Z,101643.22
2023-05-30T22:45:59.883Z,101639.56
2023-05-30T22:48:27.829Z,101633.31
2023-05-30T22:50:55.842Z,101628.06
2023-05-30T22:53:23.881Z,101628.16
2023-05-30T22:55:53.214Z,101629.91
2023-05-30T22:58:21.223Z,101617.53
2023-05-30T23:00:49.164Z,101607.72
2023-05-30T23:03:17.587Z,101606.88
2023-05-30T23:05:46.169Z,101598.06
2023-05-30T23:08:14.167Z,101591.06
2023-05-30T23:10:42.142Z,101588.38
2023-05-30T23:13:12.239Z,101588.50
2023-05-30T23:15:40.452Z,101583.13
2023-05-30T23:18:08.566Z,101575.16
2023-05-30T23:20:38.851Z,101564.50
2023-05-30T23:23:07.114Z,101554.06
2023-05-30T23:25:35.474Z,101543.09
2023-05-30T23:28:03.602Z,101534.41
2023-05-30T23:30:33.020Z,101536.84
2023-05-30T23:33:01.100Z,101532.56
2023-05-30T23:35:29.104Z,101514.19
2023-05-30T23:37:57.098Z,101530.84
2023-05-30T23:40:25.108Z,101508.81
2023-05-30T23:42:53.394Z,101505.16
2023-05-30T23:45:21.536Z,101501.38
2023-05-30T23:47:50.901Z,101507.63
2023-05-30T23:50:19.005Z,101505.16
2023-05-30T23:52:46.965Z,101479.69
2023-05-30T23:55:15.084Z,101489.78
2023-05-30T23:57:43.151Z,101483.56
